KOBE

Okeechobee County Airport

Okeechobee, Florida, USA
METAR KOBE 191655Z AUTO 00000KT 10SM CLR 32/22 A3007 RMK AO2 LTG DSNT SE AND S
Observed Flight Rules
Aug-19 @ 16:55 UTC (18 minutes ago) Visual Flight Rules
Visibility Clouds
10 miles
  • Clear skies
Temperatures Readings
Current 32°C / 90°F
Dewpoint 22°C / 72°F
Humidity 55%
Altimeter 30.07" Hg
Pressure 1018 hPa
Elevation 11
METAR KOBE 191655Z AUTO 00000KT 10SM CLR 32/22 A3007 RMK AO2 LTG DSNT SE AND S
Observed Flight Rules
Aug-19 @ 16:55 UTC
(18 minutes ago)
VFR
Clouds
  • Clear skies
Temperature Dewpoint
32°C / 90°F 22°C / 72°F
Humidity Altimeter Pressure
55% 30.07" Hg 1018 hPa